createdAt,value
2018-07-23T00:02:36.821Z,99.90
2018-07-23T00:07:31.325Z,99.90
2018-07-23T00:12:25.829Z,99.90
2018-07-23T00:17:20.347Z,99.90
2018-07-23T00:22:14.783Z,99.90
2018-07-23T00:27:09.435Z,99.90
2018-07-23T00:32:03.990Z,99.90
2018-07-23T00:36:58.511Z,99.90
2018-07-23T00:41:53.037Z,99.90
2018-07-23T00:46:47.554Z,99.90
2018-07-23T00:51:42.128Z,99.90
2018-07-23T00:56:36.607Z,99.90
2018-07-23T01:01:31.086Z,99.90
2018-07-23T01:06:25.593Z,99.90
2018-07-23T01:11:20.149Z,99.90
2018-07-23T01:16:14.695Z,99.90
2018-07-23T01:21:09.279Z,99.90
2018-07-23T01:26:03.801Z,99.90
2018-07-23T01:30:58.304Z,99.90
2018-07-23T01:35:52.798Z,99.90
2018-07-23T01:40:47.308Z,99.90
2018-07-23T01:45:41.821Z,99.90
2018-07-23T01:50:36.320Z,99.90
2018-07-23T01:55:31.788Z,99.90
2018-07-23T02:00:26.370Z,99.90
2018-07-23T02:05:20.889Z,99.90
2018-07-23T02:10:15.412Z,99.90
2018-07-23T02:15:09.934Z,99.90
2018-07-23T02:20:05.074Z,99.90
2018-07-23T02:24:59.668Z,99.90
2018-07-23T02:29:54.125Z,99.90
2018-07-23T02:34:48.681Z,99.90
2018-07-23T02:39:43.197Z,99.90
2018-07-23T02:44:37.729Z,99.90
2018-07-23T02:49:32.246Z,99.90
2018-07-23T02:54:26.783Z,99.90
2018-07-23T02:59:21.973Z,99.90
2018-07-23T03:04:16.506Z,99.90
2018-07-23T03:09:11.044Z,99.90
2018-07-23T03:14:05.638Z,99.90
2018-07-23T03:19:00.149Z,99.90
2018-07-23T03:23:54.661Z,99.90
2018-07-23T03:28:49.324Z,99.90
2018-07-23T03:33:43.946Z,99.90
2018-07-23T03:38:38.440Z,99.90
2018-07-23T03:43:32.929Z,99.90
2018-07-23T03:48:27.508Z,99.90
2018-07-23T03:53:22.020Z,99.90
2018-07-23T03:58:16.661Z,99.90
2018-07-23T04:03:11.253Z,99.90
2018-07-23T04:08:05.913Z,99.90
2018-07-23T04:13:00.437Z,99.90
2018-07-23T04:18:01.806Z,99.90
2018-07-23T04:27:50.641Z,99.90
2018-07-23T04:32:45.209Z,99.90
2018-07-23T04:37:39.768Z,99.90
2018-07-23T04:42:34.317Z,99.90
2018-07-23T04:47:28.945Z,99.90
2018-07-23T04:52:23.481Z,99.90
2018-07-23T04:57:18.096Z,99.90
2018-07-23T05:02:12.720Z,99.90
2018-07-23T05:07:07.344Z,99.90
2018-07-23T05:12:01.953Z,99.90
2018-07-23T05:16:56.540Z,99.90
2018-07-23T05:21:51.129Z,99.90
2018-07-23T05:26:45.710Z,99.90
2018-07-23T05:31:40.291Z,99.90
2018-07-23T05:36:34.723Z,99.90
2018-07-23T05:41:29.156Z,99.90
2018-07-23T05:46:23.597Z,99.90
2018-07-23T05:51:18.145Z,99.90
2018-07-23T05:56:12.581Z,99.90
2018-07-23T06:01:07.101Z,99.90
2018-07-23T06:06:01.589Z,99.90
2018-07-23T06:10:56.033Z,99.90
2018-07-23T06:15:50.497Z,99.90
2018-07-23T06:20:44.964Z,99.90
2018-07-23T06:25:39.470Z,99.90
2018-07-23T06:30:33.957Z,99.90
2018-07-23T06:35:28.484Z,99.90
2018-07-23T06:40:22.995Z,99.90
2018-07-23T06:45:17.521Z,99.90
2018-07-23T06:50:12.449Z,99.90
2018-07-23T07:00:01.106Z,99.90
2018-07-23T07:04:55.766Z,99.90
2018-07-23T07:14:44.754Z,99.90
2018-07-23T07:19:39.647Z,99.90
2018-07-23T07:24:35.285Z,99.90
2018-07-23T07:29:30.097Z,99.90
2018-07-23T07:34:24.794Z,99.90
2018-07-23T07:39:19.405Z,99.50
2018-07-23T07:44:13.922Z,99.50
2018-07-23T07:49:08.945Z,99.90
2018-07-23T07:54:04.914Z,99.90
2018-07-23T07:58:59.557Z,99.70
2018-07-23T08:03:53.991Z,99.90
2018-07-23T08:08:48.511Z,98.90
2018-07-23T08:13:43.081Z,98.20
2018-07-23T08:18:37.669Z,98.40
2018-07-23T08:23:32.323Z,98.50
2018-07-23T08:28:26.909Z,97.20
2018-07-23T08:33:21.715Z,96.60
2018-07-23T08:38:16.213Z,96.40
2018-07-23T08:43:10.797Z,97.00
2018-07-23T08:48:05.272Z,98.40
2018-07-23T08:57:56.285Z,98.10
2018-07-23T09:02:50.944Z,98.20
2018-07-23T09:07:48.956Z,98.80
2018-07-23T09:12:43.432Z,98.60
2018-07-23T09:17:38.321Z,98.60
2018-07-23T09:22:33.475Z,97.80
2018-07-23T09:27:28.065Z,97.80
2018-07-23T09:37:18.508Z,98.00
2018-07-23T09:42:13.077Z,96.60
2018-07-23T09:47:08.648Z,96.30
2018-07-23T09:52:03.251Z,95.60
2018-07-23T10:01:51.983Z,94.40
2018-07-23T10:06:47.312Z,93.90
2018-07-23T10:11:41.753Z,93.50
2018-07-23T10:16:36.452Z,92.90
2018-07-23T10:21:31.000Z,92.70
2018-07-23T10:26:25.781Z,92.00
2018-07-23T10:31:22.482Z,91.70
2018-07-23T10:36:16.937Z,92.10
2018-07-23T10:41:11.588Z,91.10
2018-07-23T10:46:06.551Z,90.50
2018-07-23T10:51:01.447Z,89.50
2018-07-23T10:55:55.920Z,90.40
2018-07-23T11:00:50.407Z,90.40
2018-07-23T11:05:44.889Z,88.70
2018-07-23T11:10:39.969Z,87.40
2018-07-23T11:15:34.522Z,87.00
2018-07-23T11:25:38.979Z,88.20
2018-07-23T11:30:24.917Z,88.00
2018-07-23T11:35:19.377Z,85.40
2018-07-23T11:40:15.242Z,84.80
2018-07-23T11:45:09.788Z,83.40
2018-07-23T11:50:04.292Z,81.70
2018-07-23T11:54:58.726Z,81.60
2018-07-23T11:59:53.237Z,81.60
2018-07-23T12:04:48.586Z,81.00
2018-07-23T12:14:40.461Z,80.70
2018-07-23T12:19:34.926Z,81.40
2018-07-23T12:24:29.745Z,81.70
2018-07-23T12:29:25.194Z,81.80
2018-07-23T12:34:19.788Z,81.40
2018-07-23T12:39:14.288Z,80.40
2018-07-23T12:44:08.842Z,80.00
2018-07-23T12:49:03.329Z,76.90
2018-07-23T12:53:57.775Z,77.30
2018-07-23T12:58:52.232Z,77.30
2018-07-23T13:08:41.005Z,73.90
2018-07-23T13:13:35.510Z,75.40
2018-07-23T13:18:30.052Z,74.50
2018-07-23T13:23:24.512Z,74.00
2018-07-23T13:28:19.049Z,75.20
2018-07-23T13:33:13.497Z,74.60
2018-07-23T13:38:08.015Z,75.70
2018-07-23T13:43:02.510Z,75.90
2018-07-23T13:47:56.980Z,76.00
2018-07-23T13:52:51.454Z,76.50
2018-07-23T13:57:45.917Z,76.10
2018-07-23T14:02:40.425Z,74.50
2018-07-23T14:07:34.893Z,75.30
2018-07-23T14:12:29.329Z,77.00
2018-07-23T14:17:23.900Z,77.30
2018-07-23T14:22:18.977Z,77.80
2018-07-23T14:27:13.481Z,80.50
2018-07-23T14:32:07.992Z,79.50
2018-07-23T14:37:02.436Z,79.60
2018-07-23T14:41:57.288Z,79.20
2018-07-23T14:46:51.767Z,77.00
2018-07-23T14:51:46.298Z,77.60
2018-07-23T14:56:40.736Z,78.40
2018-07-23T15:06:29.529Z,78.90
2018-07-23T15:16:18.381Z,79.70
2018-07-23T15:21:12.877Z,78.20
2018-07-23T15:26:07.401Z,77.40
2018-07-23T15:31:01.842Z,76.90
2018-07-23T15:35:56.337Z,77.40
2018-07-23T15:40:50.884Z,76.90
2018-07-23T15:45:46.950Z,76.80
2018-07-23T15:50:42.686Z,76.60
2018-07-23T15:55:37.136Z,78.00
2018-07-23T16:00:31.596Z,76.40
2018-07-23T16:05:26.087Z,76.10
2018-07-23T16:10:20.495Z,77.00
2018-07-23T16:15:14.932Z,78.20
2018-07-23T16:20:09.363Z,78.20
2018-07-23T16:29:58.332Z,76.50
2018-07-23T16:34:52.796Z,78.10
2018-07-23T16:39:47.336Z,77.50
2018-07-23T16:44:42.078Z,79.60
2018-07-23T16:49:36.742Z,78.60
2018-07-23T16:54:31.341Z,76.80
2018-07-23T16:59:26.196Z,75.00
2018-07-23T17:04:20.893Z,74.00
2018-07-23T17:09:15.540Z,75.90
2018-07-23T17:14:10.400Z,76.30
2018-07-23T17:19:05.081Z,77.60
2018-07-23T17:23:59.895Z,78.50
2018-07-23T17:28:54.713Z,80.70
2018-07-23T17:33:49.525Z,80.40
2018-07-23T17:38:44.210Z,81.20
2018-07-23T17:43:38.728Z,81.20
2018-07-23T17:48:33.768Z,82.10
2018-07-23T17:53:28.457Z,82.00
2018-07-23T17:58:23.033Z,82.50
2018-07-23T18:03:17.684Z,82.50
2018-07-23T18:08:12.339Z,82.90
2018-07-23T18:13:07.233Z,82.50
2018-07-23T18:18:01.820Z,83.10
2018-07-23T18:22:56.407Z,83.90
2018-07-23T18:27:51.018Z,84.80
2018-07-23T18:32:45.576Z,86.10
2018-07-23T18:37:40.320Z,87.20
2018-07-23T18:42:35.015Z,87.30
2018-07-23T18:47:29.565Z,88.00
2018-07-23T18:52:24.951Z,88.60
2018-07-23T18:57:19.790Z,90.00
2018-07-23T19:02:15.794Z,90.40
2018-07-23T19:07:10.818Z,91.30
2018-07-23T19:12:05.512Z,93.30
2018-07-23T19:17:01.058Z,94.00
2018-07-23T19:21:55.693Z,94.70
2018-07-23T19:26:50.356Z,95.10
2018-07-23T19:36:39.353Z,96.80
2018-07-23T19:41:33.981Z,97.40
2018-07-23T19:46:28.544Z,98.00
2018-07-23T19:51:23.328Z,98.40
2018-07-23T19:56:17.968Z,98.80
2018-07-23T20:01:12.710Z,99.20
2018-07-23T20:06:07.322Z,99.70
2018-07-23T20:11:02.104Z,99.90
2018-07-23T20:20:51.708Z,99.90
2018-07-23T20:25:46.382Z,99.90
2018-07-23T20:30:40.957Z,99.90
2018-07-23T20:35:35.569Z,99.90
2018-07-23T20:40:30.230Z,99.90
2018-07-23T20:45:24.946Z,99.90
2018-07-23T20:50:19.552Z,99.90
2018-07-23T20:55:14.355Z,99.90
2018-07-23T21:00:09.122Z,99.90
2018-07-23T21:05:03.742Z,99.90
2018-07-23T21:14:52.644Z,99.90
2018-07-23T21:19:47.343Z,99.90
2018-07-23T21:24:41.862Z,99.90
2018-07-23T21:29:36.388Z,99.90
2018-07-23T21:34:30.987Z,99.90
2018-07-23T21:39:25.548Z,99.90
2018-07-23T21:44:20.142Z,99.90
2018-07-23T21:49:14.712Z,99.90
2018-07-23T21:54:09.372Z,99.90
2018-07-23T21:59:03.951Z,99.90
2018-07-23T22:03:58.508Z,99.90
2018-07-23T22:08:55.244Z,99.90
2018-07-23T22:13:49.821Z,99.90
2018-07-23T22:18:44.391Z,99.90
2018-07-23T22:23:38.947Z,99.90
2018-07-23T22:28:33.641Z,99.90
2018-07-23T22:33:28.472Z,99.90
2018-07-23T22:43:18.021Z,99.90
2018-07-23T22:48:12.654Z,99.90
2018-07-23T22:53:07.277Z,99.90
2018-07-23T22:58:01.851Z,99.90
2018-07-23T23:02:56.449Z,99.90
2018-07-23T23:07:51.060Z,99.90
2018-07-23T23:12:45.652Z,99.90
2018-07-23T23:17:40.448Z,99.90
2018-07-23T23:22:35.016Z,99.90
2018-07-23T23:27:29.614Z,99.90
2018-07-23T23:32:24.585Z,99.90
2018-07-23T23:37:19.183Z,99.90
2018-07-23T23:42:13.937Z,99.90
2018-07-23T23:47:08.528Z,99.90
2018-07-23T23:52:03.102Z,99.90
2018-07-23T23:56:57.635Z,99.90
